sensor_id;sensor_type;location;lat;lon;timestamp;P1;durP1;ratioP1;P2;durP2;ratioP2
17570;SDS011;8903;52.220;20.978;2023-07-29T00:00:54;12.97;;;11.60;;
17570;SDS011;8903;52.220;20.978;2023-07-29T00:03:21;14.10;;;12.70;;
17570;SDS011;8903;52.220;20.978;2023-07-29T00:05:48;15.60;;;13.10;;
17570;SDS011;8903;52.220;20.978;2023-07-29T00:08:15;19.67;;;12.50;;
17570;SDS011;8903;52.220;20.978;2023-07-29T00:10:42;14.43;;;12.93;;
17570;SDS011;8903;52.220;20.978;2023-07-29T00:13:09;15.00;;;13.27;;
17570;SDS011;8903;52.220;20.978;2023-07-29T00:15:36;14.70;;;13.30;;
17570;SDS011;8903;52.220;20.978;2023-07-29T00:18:05;21.67;;;14.20;;
17570;SDS011;8903;52.220;20.978;2023-07-29T00:20:32;20.03;;;13.73;;
17570;SDS011;8903;52.220;20.978;2023-07-29T00:22:58;15.67;;;13.40;;
17570;SDS011;8903;52.220;20.978;2023-07-29T00:25:26;16.17;;;14.47;;
17570;SDS011;8903;52.220;20.978;2023-07-29T00:27:54;16.63;;;14.90;;
17570;SDS011;8903;52.220;20.978;2023-07-29T00:30:21;25.03;;;17.90;;
17570;SDS011;8903;52.220;20.978;2023-07-29T00:32:48;28.37;;;17.70;;
17570;SDS011;8903;52.220;20.978;2023-07-29T00:35:17;20.43;;;17.80;;
17570;SDS011;8903;52.220;20.978;2023-07-29T00:37:44;27.27;;;18.80;;
17570;SDS011;8903;52.220;20.978;2023-07-29T00:40:13;26.13;;;20.20;;
17570;SDS011;8903;52.220;20.978;2023-07-29T00:42:42;24.30;;;20.83;;
17570;SDS011;8903;52.220;20.978;2023-07-29T00:45:09;24.20;;;19.60;;
17570;SDS011;8903;52.220;20.978;2023-07-29T00:47:36;28.53;;;21.03;;
17570;SDS011;8903;52.220;20.978;2023-07-29T00:50:04;21.87;;;19.53;;
17570;SDS011;8903;52.220;20.978;2023-07-29T00:52:34;22.80;;;20.17;;
17570;SDS011;8903;52.220;20.978;2023-07-29T00:55:01;21.57;;;19.37;;
17570;SDS011;8903;52.220;20.978;2023-07-29T00:57:29;28.50;;;22.17;;
17570;SDS011;8903;52.220;20.978;2023-07-29T00:59:56;24.53;;;19.13;;
17570;SDS011;8903;52.220;20.978;2023-07-29T01:02:23;28.63;;;22.23;;
17570;SDS011;8903;52.220;20.978;2023-07-29T01:04:52;27.13;;;21.43;;
17570;SDS011;8903;52.220;20.978;2023-07-29T01:07:21;25.37;;;20.07;;
17570;SDS011;8903;52.220;20.978;2023-07-29T01:09:59;26.37;;;20.63;;
17570;SDS011;8903;52.220;20.978;2023-07-29T01:12:31;28.80;;;20.50;;
17570;SDS011;8903;52.220;20.978;2023-07-29T01:15:09;30.67;;;21.17;;
17570;SDS011;8903;52.220;20.978;2023-07-29T01:17:40;27.80;;;22.07;;
17570;SDS011;8903;52.220;20.978;2023-07-29T01:20:11;32.37;;;22.40;;
17570;SDS011;8903;52.220;20.978;2023-07-29T01:22:40;31.03;;;22.30;;
17570;SDS011;8903;52.220;20.978;2023-07-29T01:25:09;28.63;;;22.67;;
17570;SDS011;8903;52.220;20.978;2023-07-29T01:27:38;29.10;;;21.63;;
17570;SDS011;8903;52.220;20.978;2023-07-29T01:30:05;28.97;;;21.10;;
17570;SDS011;8903;52.220;20.978;2023-07-29T01:32:35;28.77;;;20.87;;
17570;SDS011;8903;52.220;20.978;2023-07-29T01:35:11;32.57;;;22.53;;
17570;SDS011;8903;52.220;20.978;2023-07-29T01:37:44;31.53;;;20.63;;
17570;SDS011;8903;52.220;20.978;2023-07-29T01:40:16;25.20;;;21.00;;
17570;SDS011;8903;52.220;20.978;2023-07-29T01:42:44;25.47;;;19.83;;
17570;SDS011;8903;52.220;20.978;2023-07-29T01:45:12;24.63;;;19.43;;
17570;SDS011;8903;52.220;20.978;2023-07-29T01:47:39;23.43;;;18.63;;
17570;SDS011;8903;52.220;20.978;2023-07-29T01:50:07;26.13;;;19.43;;
17570;SDS011;8903;52.220;20.978;2023-07-29T01:52:34;28.03;;;21.80;;
17570;SDS011;8903;52.220;20.978;2023-07-29T01:55:02;30.03;;;19.83;;
17570;SDS011;8903;52.220;20.978;2023-07-29T01:57:31;24.63;;;20.03;;
17570;SDS011;8903;52.220;20.978;2023-07-29T01:59:58;24.53;;;19.00;;
17570;SDS011;8903;52.220;20.978;2023-07-29T02:02:25;25.20;;;20.17;;
17570;SDS011;8903;52.220;20.978;2023-07-29T02:04:52;26.30;;;20.73;;
17570;SDS011;8903;52.220;20.978;2023-07-29T02:07:21;29.80;;;20.50;;
17570;SDS011;8903;52.220;20.978;2023-07-29T02:09:48;27.00;;;18.70;;
17570;SDS011;8903;52.220;20.978;2023-07-29T02:12:15;27.20;;;19.90;;
17570;SDS011;8903;52.220;20.978;2023-07-29T02:14:43;25.73;;;19.80;;
17570;SDS011;8903;52.220;20.978;2023-07-29T02:17:10;26.87;;;19.60;;
17570;SDS011;8903;52.220;20.978;2023-07-29T02:19:37;28.53;;;20.53;;
17570;SDS011;8903;52.220;20.978;2023-07-29T02:22:04;23.30;;;18.77;;
17570;SDS011;8903;52.220;20.978;2023-07-29T02:24:31;30.53;;;20.93;;
17570;SDS011;8903;52.220;20.978;2023-07-29T02:26:58;26.10;;;19.33;;
17570;SDS011;8903;52.220;20.978;2023-07-29T02:29:25;32.73;;;20.23;;
17570;SDS011;8903;52.220;20.978;2023-07-29T02:31:54;25.57;;;19.63;;
17570;SDS011;8903;52.220;20.978;2023-07-29T02:34:20;23.87;;;18.47;;
17570;SDS011;8903;52.220;20.978;2023-07-29T02:36:48;26.77;;;20.60;;
17570;SDS011;8903;52.220;20.978;2023-07-29T02:39:15;26.63;;;19.30;;
17570;SDS011;8903;52.220;20.978;2023-07-29T02:41:41;26.67;;;18.40;;
17570;SDS011;8903;52.220;20.978;2023-07-29T02:44:09;24.13;;;19.00;;
17570;SDS011;8903;52.220;20.978;2023-07-29T02:46:36;33.17;;;21.50;;
17570;SDS011;8903;52.220;20.978;2023-07-29T02:49:04;25.70;;;20.33;;
17570;SDS011;8903;52.220;20.978;2023-07-29T02:51:31;26.47;;;20.57;;
17570;SDS011;8903;52.220;20.978;2023-07-29T02:53:58;31.47;;;23.47;;
17570;SDS011;8903;52.220;20.978;2023-07-29T02:56:25;30.77;;;21.37;;
17570;SDS011;8903;52.220;20.978;2023-07-29T02:58:52;37.30;;;22.27;;
17570;SDS011;8903;52.220;20.978;2023-07-29T03:01:19;30.93;;;21.50;;
17570;SDS011;8903;52.220;20.978;2023-07-29T03:03:47;36.63;;;24.27;;
17570;SDS011;8903;52.220;20.978;2023-07-29T03:06:15;32.77;;;23.40;;
17570;SDS011;8903;52.220;20.978;2023-07-29T03:08:42;32.90;;;21.77;;
17570;SDS011;8903;52.220;20.978;2023-07-29T03:11:12;31.03;;;22.67;;
17570;SDS011;8903;52.220;20.978;2023-07-29T03:13:40;37.10;;;22.03;;
17570;SDS011;8903;52.220;20.978;2023-07-29T03:16:07;33.43;;;23.10;;
17570;SDS011;8903;52.220;20.978;2023-07-29T03:18:37;35.67;;;22.10;;
17570;SDS011;8903;52.220;20.978;2023-07-29T03:21:05;32.73;;;23.13;;
17570;SDS011;8903;52.220;20.978;2023-07-29T03:23:33;36.93;;;21.57;;
17570;SDS011;8903;52.220;20.978;2023-07-29T03:26:01;31.20;;;22.03;;
17570;SDS011;8903;52.220;20.978;2023-07-29T03:28:35;31.43;;;21.17;;
17570;SDS011;8903;52.220;20.978;2023-07-29T03:31:03;27.70;;;21.70;;
17570;SDS011;8903;52.220;20.978;2023-07-29T03:33:31;27.13;;;19.40;;
17570;SDS011;8903;52.220;20.978;2023-07-29T03:35:58;35.00;;;22.47;;
17570;SDS011;8903;52.220;20.978;2023-07-29T03:38:25;39.90;;;25.83;;
17570;SDS011;8903;52.220;20.978;2023-07-29T03:40:55;31.17;;;21.90;;
17570;SDS011;8903;52.220;20.978;2023-07-29T03:43:22;41.57;;;20.90;;
17570;SDS011;8903;52.220;20.978;2023-07-29T03:45:50;37.40;;;20.77;;
17570;SDS011;8903;52.220;20.978;2023-07-29T03:48:17;28.23;;;19.83;;
17570;SDS011;8903;52.220;20.978;2023-07-29T03:50:43;73.43;;;21.50;;
17570;SDS011;8903;52.220;20.978;2023-07-29T03:53:10;34.97;;;20.90;;
17570;SDS011;8903;52.220;20.978;2023-07-29T03:55:37;44.87;;;19.77;;
17570;SDS011;8903;52.220;20.978;2023-07-29T03:58:06;49.67;;;19.90;;
17570;SDS011;8903;52.220;20.978;2023-07-29T04:00:33;37.50;;;18.80;;
17570;SDS011;8903;52.220;20.978;2023-07-29T04:03:00;24.07;;;17.80;;
17570;SDS011;8903;52.220;20.978;2023-07-29T04:05:27;21.90;;;17.00;;
17570;SDS011;8903;52.220;20.978;2023-07-29T04:07:54;27.00;;;18.10;;
17570;SDS011;8903;52.220;20.978;2023-07-29T04:10:22;31.50;;;19.10;;
17570;SDS011;8903;52.220;20.978;2023-07-29T04:12:49;26.47;;;18.03;;
17570;SDS011;8903;52.220;20.978;2023-07-29T04:15:18;45.20;;;21.20;;
17570;SDS011;8903;52.220;20.978;2023-07-29T04:17:44;112.80;;;21.87;;
17570;SDS011;8903;52.220;20.978;2023-07-29T04:20:11;32.73;;;19.63;;
17570;SDS011;8903;52.220;20.978;2023-07-29T04:22:39;26.90;;;20.60;;
17570;SDS011;8903;52.220;20.978;2023-07-29T04:25:06;35.97;;;19.13;;
17570;SDS011;8903;52.220;20.978;2023-07-29T04:27:33;24.70;;;19.17;;
17570;SDS011;8903;52.220;20.978;2023-07-29T04:30:00;24.20;;;18.40;;
17570;SDS011;8903;52.220;20.978;2023-07-29T04:32:29;23.07;;;18.07;;
17570;SDS011;8903;52.220;20.978;2023-07-29T04:34:56;35.10;;;19.17;;
17570;SDS011;8903;52.220;20.978;2023-07-29T04:37:23;23.77;;;19.60;;
17570;SDS011;8903;52.220;20.978;2023-07-29T04:39:50;21.83;;;18.37;;
17570;SDS011;8903;52.220;20.978;2023-07-29T04:42:17;23.03;;;17.43;;
17570;SDS011;8903;52.220;20.978;2023-07-29T04:44:44;20.20;;;17.67;;
17570;SDS011;8903;52.220;20.978;2023-07-29T04:47:11;23.20;;;18.20;;
17570;SDS011;8903;52.220;20.978;2023-07-29T04:49:40;18.43;;;15.87;;
17570;SDS011;8903;52.220;20.978;2023-07-29T04:52:07;22.23;;;17.20;;
17570;SDS011;8903;52.220;20.978;2023-07-29T04:54:34;20.40;;;16.50;;
17570;SDS011;8903;52.220;20.978;2023-07-29T04:57:01;28.13;;;17.70;;
17570;SDS011;8903;52.220;20.978;2023-07-29T04:59:29;20.77;;;18.33;;
17570;SDS011;8903;52.220;20.978;2023-07-29T05:01:55;22.60;;;17.20;;
17570;SDS011;8903;52.220;20.978;2023-07-29T05:04:23;18.53;;;16.57;;
17570;SDS011;8903;52.220;20.978;2023-07-29T05:06:51;19.93;;;16.53;;
17570;SDS011;8903;52.220;20.978;2023-07-29T05:09:18;21.37;;;17.70;;
17570;SDS011;8903;52.220;20.978;2023-07-29T05:11:47;20.87;;;18.67;;
17570;SDS011;8903;52.220;20.978;2023-07-29T05:14:14;22.50;;;20.10;;
17570;SDS011;8903;52.220;20.978;2023-07-29T05:16:42;22.00;;;19.30;;
17570;SDS011;8903;52.220;20.978;2023-07-29T05:19:10;20.73;;;18.50;;
17570;SDS011;8903;52.220;20.978;2023-07-29T05:21:38;22.23;;;19.57;;
17570;SDS011;8903;52.220;20.978;2023-07-29T05:24:06;20.50;;;18.40;;
17570;SDS011;8903;52.220;20.978;2023-07-29T05:26:33;22.20;;;18.70;;
17570;SDS011;8903;52.220;20.978;2023-07-29T05:29:00;20.73;;;18.47;;
17570;SDS011;8903;52.220;20.978;2023-07-29T05:31:29;22.47;;;20.00;;
17570;SDS011;8903;52.220;20.978;2023-07-29T05:33:56;21.90;;;19.60;;
17570;SDS011;8903;52.220;20.978;2023-07-29T05:36:23;22.80;;;20.40;;
17570;SDS011;8903;52.220;20.978;2023-07-29T05:38:51;21.77;;;19.07;;
17570;SDS011;8903;52.220;20.978;2023-07-29T05:41:20;22.87;;;20.47;;
17570;SDS011;8903;52.220;20.978;2023-07-29T05:43:47;20.80;;;18.67;;
17570;SDS011;8903;52.220;20.978;2023-07-29T05:46:14;20.60;;;18.57;;
17570;SDS011;8903;52.220;20.978;2023-07-29T05:48:41;22.20;;;19.13;;
17570;SDS011;8903;52.220;20.978;2023-07-29T05:51:08;22.30;;;20.10;;
17570;SDS011;8903;52.220;20.978;2023-07-29T05:53:35;21.63;;;18.23;;
17570;SDS011;8903;52.220;20.978;2023-07-29T05:56:02;21.73;;;19.47;;
17570;SDS011;8903;52.220;20.978;2023-07-29T05:58:30;21.70;;;19.50;;
17570;SDS011;8903;52.220;20.978;2023-07-29T06:00:58;21.37;;;19.27;;
17570;SDS011;8903;52.220;20.978;2023-07-29T06:03:25;21.83;;;19.83;;
17570;SDS011;8903;52.220;20.978;2023-07-29T06:05:52;20.70;;;17.87;;
17570;SDS011;8903;52.220;20.978;2023-07-29T06:08:19;21.97;;;19.87;;
17570;SDS011;8903;52.220;20.978;2023-07-29T06:10:47;20.57;;;18.37;;
17570;SDS011;8903;52.220;20.978;2023-07-29T06:13:14;21.67;;;19.40;;
17570;SDS011;8903;52.220;20.978;2023-07-29T06:15:42;20.63;;;18.73;;
17570;SDS011;8903;52.220;20.978;2023-07-29T06:18:10;19.97;;;18.03;;
17570;SDS011;8903;52.220;20.978;2023-07-29T06:20:37;21.77;;;19.67;;
17570;SDS011;8903;52.220;20.978;2023-07-29T06:23:05;21.80;;;19.50;;
17570;SDS011;8903;52.220;20.978;2023-07-29T06:25:32;19.23;;;17.50;;
17570;SDS011;8903;52.220;20.978;2023-07-29T06:27:59;19.73;;;17.70;;
17570;SDS011;8903;52.220;20.978;2023-07-29T06:30:26;18.17;;;16.43;;
17570;SDS011;8903;52.220;20.978;2023-07-29T06:32:54;18.97;;;17.20;;
17570;SDS011;8903;52.220;20.978;2023-07-29T06:35:21;20.10;;;18.10;;
17570;SDS011;8903;52.220;20.978;2023-07-29T06:37:48;17.93;;;16.27;;
17570;SDS011;8903;52.220;20.978;2023-07-29T06:40:15;17.40;;;15.63;;
17570;SDS011;8903;52.220;20.978;2023-07-29T06:42:42;17.73;;;16.13;;
17570;SDS011;8903;52.220;20.978;2023-07-29T06:45:09;18.60;;;16.67;;
17570;SDS011;8903;52.220;20.978;2023-07-29T06:47:36;18.00;;;16.30;;
17570;SDS011;8903;52.220;20.978;2023-07-29T06:50:05;17.23;;;15.63;;
17570;SDS011;8903;52.220;20.978;2023-07-29T06:52:32;18.67;;;16.87;;
17570;SDS011;8903;52.220;20.978;2023-07-29T06:54:59;19.03;;;14.50;;
17570;SDS011;8903;52.220;20.978;2023-07-29T06:57:26;16.47;;;14.77;;
17570;SDS011;8903;52.220;20.978;2023-07-29T06:59:53;15.90;;;14.17;;
17570;SDS011;8903;52.220;20.978;2023-07-29T07:02:20;16.00;;;13.53;;
17570;SDS011;8903;52.220;20.978;2023-07-29T07:04:47;15.37;;;14.07;;
17570;SDS011;8903;52.220;20.978;2023-07-29T07:07:16;13.83;;;12.73;;
17570;SDS011;8903;52.220;20.978;2023-07-29T07:09:43;13.57;;;12.20;;
17570;SDS011;8903;52.220;20.978;2023-07-29T07:12:10;13.63;;;12.33;;
17570;SDS011;8903;52.220;20.978;2023-07-29T07:14:37;15.40;;;14.00;;
17570;SDS011;8903;52.220;20.978;2023-07-29T07:17:04;14.27;;;12.57;;
17570;SDS011;8903;52.220;20.978;2023-07-29T07:19:31;11.80;;;10.80;;
17570;SDS011;8903;52.220;20.978;2023-07-29T07:21:58;14.30;;;12.83;;
17570;SDS011;8903;52.220;20.978;2023-07-29T07:24:26;13.40;;;12.20;;
17570;SDS011;8903;52.220;20.978;2023-07-29T07:26:53;12.33;;;11.23;;
17570;SDS011;8903;52.220;20.978;2023-07-29T07:29:20;13.80;;;12.60;;
17570;SDS011;8903;52.220;20.978;2023-07-29T07:31:49;13.27;;;12.07;;
17570;SDS011;8903;52.220;20.978;2023-07-29T07:34:18;11.10;;;10.10;;
17570;SDS011;8903;52.220;20.978;2023-07-29T07:36:45;11.10;;;10.10;;
17570;SDS011;8903;52.220;20.978;2023-07-29T07:39:12;12.27;;;10.27;;
17570;SDS011;8903;52.220;20.978;2023-07-29T07:41:41;11.00;;;10.00;;
17570;SDS011;8903;52.220;20.978;2023-07-29T07:44:08;11.97;;;10.80;;
17570;SDS011;8903;52.220;20.978;2023-07-29T07:46:36;12.23;;;11.10;;
17570;SDS011;8903;52.220;20.978;2023-07-29T07:49:03;13.40;;;12.00;;
17570;SDS011;8903;52.220;20.978;2023-07-29T07:51:30;11.73;;;10.50;;
17570;SDS011;8903;52.220;20.978;2023-07-29T07:53:57;15.70;;;9.77;;
17570;SDS011;8903;52.220;20.978;2023-07-29T07:56:24;11.97;;;10.93;;
17570;SDS011;8903;52.220;20.978;2023-07-29T07:58:52;12.33;;;11.00;;
17570;SDS011;8903;52.220;20.978;2023-07-29T08:01:19;10.90;;;9.80;;
17570;SDS011;8903;52.220;20.978;2023-07-29T08:03:46;11.50;;;8.40;;
17570;SDS011;8903;52.220;20.978;2023-07-29T08:06:13;10.00;;;9.00;;
17570;SDS011;8903;52.220;20.978;2023-07-29T08:08:40;8.03;;;7.33;;
17570;SDS011;8903;52.220;20.978;2023-07-29T08:11:07;11.70;;;8.33;;
17570;SDS011;8903;52.220;20.978;2023-07-29T08:13:34;9.60;;;8.80;;
17570;SDS011;8903;52.220;20.978;2023-07-29T08:16:02;11.90;;;10.80;;
17570;SDS011;8903;52.220;20.978;2023-07-29T08:18:29;10.23;;;9.40;;
17570;SDS011;8903;52.220;20.978;2023-07-29T08:20:57;10.20;;;9.37;;
17570;SDS011;8903;52.220;20.978;2023-07-29T08:23:29;9.47;;;8.70;;
17570;SDS011;8903;52.220;20.978;2023-07-29T08:25:57;9.00;;;8.27;;
17570;SDS011;8903;52.220;20.978;2023-07-29T08:28:27;8.37;;;7.63;;
17570;SDS011;8903;52.220;20.978;2023-07-29T08:30:54;8.20;;;7.40;;
17570;SDS011;8903;52.220;20.978;2023-07-29T08:33:23;7.33;;;6.47;;
17570;SDS011;8903;52.220;20.978;2023-07-29T08:35:50;6.20;;;5.70;;
17570;SDS011;8903;52.220;20.978;2023-07-29T08:38:17;8.03;;;7.30;;
17570;SDS011;8903;52.220;20.978;2023-07-29T08:40:46;6.13;;;5.63;;
17570;SDS011;8903;52.220;20.978;2023-07-29T08:43:19;5.23;;;4.73;;
17570;SDS011;8903;52.220;20.978;2023-07-29T08:45:49;5.17;;;4.77;;
17570;SDS011;8903;52.220;20.978;2023-07-29T08:48:18;8.10;;;7.30;;
17570;SDS011;8903;52.220;20.978;2023-07-29T08:50:55;6.53;;;5.10;;
17570;SDS011;8903;52.220;20.978;2023-07-29T08:53:23;3.30;;;3.10;;
17570;SDS011;8903;52.220;20.978;2023-07-29T08:55:50;3.70;;;3.40;;
17570;SDS011;8903;52.220;20.978;2023-07-29T08:58:18;5.53;;;5.13;;
17570;SDS011;8903;52.220;20.978;2023-07-29T09:00:46;3.83;;;3.53;;
17570;SDS011;8903;52.220;20.978;2023-07-29T09:03:14;4.20;;;3.80;;
17570;SDS011;8903;52.220;20.978;2023-07-29T09:05:42;5.20;;;4.70;;
17570;SDS011;8903;52.220;20.978;2023-07-29T09:08:09;8.07;;;7.37;;
17570;SDS011;8903;52.220;20.978;2023-07-29T09:10:37;5.20;;;4.90;;
17570;SDS011;8903;52.220;20.978;2023-07-29T09:13:04;4.23;;;3.93;;
17570;SDS011;8903;52.220;20.978;2023-07-29T09:15:32;4.53;;;3.87;;
17570;SDS011;8903;52.220;20.978;2023-07-29T09:18:00;4.20;;;3.90;;
17570;SDS011;8903;52.220;20.978;2023-07-29T09:20:35;4.20;;;3.90;;
17570;SDS011;8903;52.220;20.978;2023-07-29T09:23:06;6.10;;;3.13;;
17570;SDS011;8903;52.220;20.978;2023-07-29T09:25:34;3.80;;;3.50;;
17570;SDS011;8903;52.220;20.978;2023-07-29T09:28:09;4.80;;;4.40;;
17570;SDS011;8903;52.220;20.978;2023-07-29T09:30:37;4.80;;;3.33;;
17570;SDS011;8903;52.220;20.978;2023-07-29T09:33:04;5.73;;;3.50;;
17570;SDS011;8903;52.220;20.978;2023-07-29T09:35:33;4.53;;;3.10;;
17570;SDS011;8903;52.220;20.978;2023-07-29T09:38:01;3.57;;;3.27;;
17570;SDS011;8903;52.220;20.978;2023-07-29T09:40:35;3.03;;;2.83;;
17570;SDS011;8903;52.220;20.978;2023-07-29T09:43:03;4.17;;;3.30;;
17570;SDS011;8903;52.220;20.978;2023-07-29T09:45:32;3.27;;;3.07;;
17570;SDS011;8903;52.220;20.978;2023-07-29T09:48:01;3.20;;;3.00;;
17570;SDS011;8903;52.220;20.978;2023-07-29T09:50:29;3.10;;;2.90;;
17570;SDS011;8903;52.220;20.978;2023-07-29T09:52:56;4.60;;;2.90;;
17570;SDS011;8903;52.220;20.978;2023-07-29T09:55:24;3.33;;;2.27;;
17570;SDS011;8903;52.220;20.978;2023-07-29T09:57:54;8.40;;;3.07;;
17570;SDS011;8903;52.220;20.978;2023-07-29T10:00:25;10.53;;;3.53;;
17570;SDS011;8903;52.220;20.978;2023-07-29T10:02:53;3.23;;;2.87;;
17570;SDS011;8903;52.220;20.978;2023-07-29T10:05:21;2.93;;;2.73;;
17570;SDS011;8903;52.220;20.978;2023-07-29T10:07:49;7.20;;;2.90;;
17570;SDS011;8903;52.220;20.978;2023-07-29T10:10:17;3.10;;;2.80;;
17570;SDS011;8903;52.220;20.978;2023-07-29T10:12:44;2.67;;;2.50;;
17570;SDS011;8903;52.220;20.978;2023-07-29T10:15:13;19.83;;;5.17;;
17570;SDS011;8903;52.220;20.978;2023-07-29T10:17:40;5.80;;;2.63;;
17570;SDS011;8903;52.220;20.978;2023-07-29T10:20:08;19.70;;;6.40;;
17570;SDS011;8903;52.220;20.978;2023-07-29T10:22:37;23.73;;;4.73;;
17570;SDS011;8903;52.220;20.978;2023-07-29T10:25:07;4.13;;;2.70;;
17570;SDS011;8903;52.220;20.978;2023-07-29T10:27:39;3.10;;;2.90;;
17570;SDS011;8903;52.220;20.978;2023-07-29T10:30:10;11.50;;;4.23;;
17570;SDS011;8903;52.220;20.978;2023-07-29T10:32:39;3.43;;;3.13;;
17570;SDS011;8903;52.220;20.978;2023-07-29T10:35:09;2.93;;;2.73;;
17570;SDS011;8903;52.220;20.978;2023-07-29T10:37:37;3.43;;;3.13;;
17570;SDS011;8903;52.220;20.978;2023-07-29T10:40:06;10.60;;;3.07;;
17570;SDS011;8903;52.220;20.978;2023-07-29T10:42:34;2.53;;;2.00;;
17570;SDS011;8903;52.220;20.978;2023-07-29T10:45:16;15.97;;;4.27;;
17570;SDS011;8903;52.220;20.978;2023-07-29T10:47:45;8.60;;;2.60;;
17570;SDS011;8903;52.220;20.978;2023-07-29T10:50:17;2.60;;;2.50;;
17570;SDS011;8903;52.220;20.978;2023-07-29T10:52:48;15.77;;;4.23;;
17570;SDS011;8903;52.220;20.978;2023-07-29T10:55:23;5.33;;;2.47;;
17570;SDS011;8903;52.220;20.978;2023-07-29T10:57:52;6.30;;;2.60;;
17570;SDS011;8903;52.220;20.978;2023-07-29T11:00:32;2.90;;;2.57;;
17570;SDS011;8903;52.220;20.978;2023-07-29T11:03:02;8.07;;;2.37;;
17570;SDS011;8903;52.220;20.978;2023-07-29T11:05:47;21.53;;;4.80;;
17570;SDS011;8903;52.220;20.978;2023-07-29T11:08:22;6.40;;;3.37;;
17570;SDS011;8903;52.220;20.978;2023-07-29T11:11:01;2.93;;;2.73;;
17570;SDS011;8903;52.220;20.978;2023-07-29T11:13:30;97.17;;;10.27;;
17570;SDS011;8903;52.220;20.978;2023-07-29T11:15:57;8.20;;;4.67;;
17570;SDS011;8903;52.220;20.978;2023-07-29T11:18:28;21.43;;;5.10;;
17570;SDS011;8903;52.220;20.978;2023-07-29T11:20:56;3.20;;;2.80;;
17570;SDS011;8903;52.220;20.978;2023-07-29T11:23:27;4.10;;;2.83;;
17570;SDS011;8903;52.220;20.978;2023-07-29T11:25:56;3.47;;;2.37;;
17570;SDS011;8903;52.220;20.978;2023-07-29T11:28:23;2.90;;;2.37;;
17570;SDS011;8903;52.220;20.978;2023-07-29T11:30:51;4.47;;;4.10;;
17570;SDS011;8903;52.220;20.978;2023-07-29T11:33:19;2.30;;;2.20;;
17570;SDS011;8903;52.220;20.978;2023-07-29T11:35:48;2.63;;;2.43;;
17570;SDS011;8903;52.220;20.978;2023-07-29T11:38:16;2.90;;;2.70;;
17570;SDS011;8903;52.220;20.978;2023-07-29T11:40:44;2.43;;;2.23;;
17570;SDS011;8903;52.220;20.978;2023-07-29T11:43:20;2.97;;;2.67;;
17570;SDS011;8903;52.220;20.978;2023-07-29T11:45:47;6.07;;;2.50;;
17570;SDS011;8903;52.220;20.978;2023-07-29T11:48:14;2.17;;;1.97;;
17570;SDS011;8903;52.220;20.978;2023-07-29T11:50:41;2.50;;;2.40;;
17570;SDS011;8903;52.220;20.978;2023-07-29T11:53:10;2.83;;;2.40;;
17570;SDS011;8903;52.220;20.978;2023-07-29T11:55:37;3.03;;;2.83;;
17570;SDS011;8903;52.220;20.978;2023-07-29T11:58:04;2.43;;;2.27;;
17570;SDS011;8903;52.220;20.978;2023-07-29T12:00:31;14.07;;;3.80;;
17570;SDS011;8903;52.220;20.978;2023-07-29T12:02:59;7.40;;;3.10;;
17570;SDS011;8903;52.220;20.978;2023-07-29T12:05:27;2.10;;;2.00;;
17570;SDS011;8903;52.220;20.978;2023-07-29T12:07:54;4.70;;;2.00;;
17570;SDS011;8903;52.220;20.978;2023-07-29T12:10:22;3.20;;;2.00;;
17570;SDS011;8903;52.220;20.978;2023-07-29T12:12:50;2.20;;;2.00;;
17570;SDS011;8903;52.220;20.978;2023-07-29T12:15:24;2.20;;;2.10;;
17570;SDS011;8903;52.220;20.978;2023-07-29T12:17:54;6.03;;;2.30;;
17570;SDS011;8903;52.220;20.978;2023-07-29T12:20:25;2.30;;;2.20;;
17570;SDS011;8903;52.220;20.978;2023-07-29T12:22:53;4.30;;;2.27;;
17570;SDS011;8903;52.220;20.978;2023-07-29T12:25:22;1.77;;;1.67;;
17570;SDS011;8903;52.220;20.978;2023-07-29T12:27:50;2.70;;;2.30;;
17570;SDS011;8903;52.220;20.978;2023-07-29T12:30:19;3.20;;;2.80;;
17570;SDS011;8903;52.220;20.978;2023-07-29T12:32:48;2.83;;;2.60;;
17570;SDS011;8903;52.220;20.978;2023-07-29T12:35:15;2.53;;;2.17;;
17570;SDS011;8903;52.220;20.978;2023-07-29T12:37:42;2.67;;;2.53;;
17570;SDS011;8903;52.220;20.978;2023-07-29T12:40:20;2.23;;;2.13;;
17570;SDS011;8903;52.220;20.978;2023-07-29T12:42:49;3.23;;;2.00;;
17570;SDS011;8903;52.220;20.978;2023-07-29T12:45:17;2.70;;;2.50;;
17570;SDS011;8903;52.220;20.978;2023-07-29T12:47:44;2.70;;;2.50;;
17570;SDS011;8903;52.220;20.978;2023-07-29T12:50:11;2.63;;;2.47;;
17570;SDS011;8903;52.220;20.978;2023-07-29T12:52:38;2.70;;;2.10;;
17570;SDS011;8903;52.220;20.978;2023-07-29T12:55:06;2.30;;;2.20;;
17570;SDS011;8903;52.220;20.978;2023-07-29T12:57:39;2.80;;;2.60;;
17570;SDS011;8903;52.220;20.978;2023-07-29T13:00:08;2.93;;;2.73;;
17570;SDS011;8903;52.220;20.978;2023-07-29T13:02:35;2.43;;;2.33;;
17570;SDS011;8903;52.220;20.978;2023-07-29T13:05:03;3.10;;;2.90;;
17570;SDS011;8903;52.220;20.978;2023-07-29T13:07:31;2.73;;;2.63;;
17570;SDS011;8903;52.220;20.978;2023-07-29T13:09:58;2.73;;;2.53;;
17570;SDS011;8903;52.220;20.978;2023-07-29T13:12:25;3.67;;;3.37;;
17570;SDS011;8903;52.220;20.978;2023-07-29T13:14:53;2.47;;;2.37;;
17570;SDS011;8903;52.220;20.978;2023-07-29T13:17:21;2.80;;;2.43;;
17570;SDS011;8903;52.220;20.978;2023-07-29T13:19:48;2.70;;;2.60;;
17570;SDS011;8903;52.220;20.978;2023-07-29T13:22:15;2.30;;;2.20;;
17570;SDS011;8903;52.220;20.978;2023-07-29T13:24:42;2.60;;;2.40;;
17570;SDS011;8903;52.220;20.978;2023-07-29T13:27:09;4.73;;;3.90;;
17570;SDS011;8903;52.220;20.978;2023-07-29T13:29:36;4.80;;;3.43;;
17570;SDS011;8903;52.220;20.978;2023-07-29T13:32:05;2.30;;;2.20;;
17570;SDS011;8903;52.220;20.978;2023-07-29T13:34:33;3.23;;;2.70;;
17570;SDS011;8903;52.220;20.978;2023-07-29T13:37:00;3.10;;;2.10;;
17570;SDS011;8903;52.220;20.978;2023-07-29T13:39:27;2.90;;;2.70;;
17570;SDS011;8903;52.220;20.978;2023-07-29T13:41:54;2.57;;;2.40;;
17570;SDS011;8903;52.220;20.978;2023-07-29T13:44:21;4.90;;;2.40;;
17570;SDS011;8903;52.220;20.978;2023-07-29T13:46:48;3.87;;;3.20;;
17570;SDS011;8903;52.220;20.978;2023-07-29T13:49:17;2.43;;;2.23;;
17570;SDS011;8903;52.220;20.978;2023-07-29T13:51:44;2.33;;;2.23;;
17570;SDS011;8903;52.220;20.978;2023-07-29T13:54:11;2.10;;;2.00;;
17570;SDS011;8903;52.220;20.978;2023-07-29T13:56:38;2.43;;;2.33;;
17570;SDS011;8903;52.220;20.978;2023-07-29T13:59:04;3.30;;;3.10;;
17570;SDS011;8903;52.220;20.978;2023-07-29T14:01:31;10.30;;;5.50;;
17570;SDS011;8903;52.220;20.978;2023-07-29T14:03:58;2.50;;;2.30;;
17570;SDS011;8903;52.220;20.978;2023-07-29T14:06:27;2.33;;;2.13;;
17570;SDS011;8903;52.220;20.978;2023-07-29T14:08:55;2.40;;;2.20;;
17570;SDS011;8903;52.220;20.978;2023-07-29T14:11:22;1.97;;;1.87;;
17570;SDS011;8903;52.220;20.978;2023-07-29T14:13:49;3.20;;;2.90;;
17570;SDS011;8903;52.220;20.978;2023-07-29T14:16:16;3.37;;;3.10;;
17570;SDS011;8903;52.220;20.978;2023-07-29T14:18:43;2.40;;;2.30;;
17570;SDS011;8903;52.220;20.978;2023-07-29T14:21:10;3.47;;;2.50;;
17570;SDS011;8903;52.220;20.978;2023-07-29T14:23:38;2.90;;;2.57;;
17570;SDS011;8903;52.220;20.978;2023-07-29T14:26:06;2.93;;;2.73;;
17570;SDS011;8903;52.220;20.978;2023-07-29T14:28:35;7.17;;;2.17;;
17570;SDS011;8903;52.220;20.978;2023-07-29T14:31:02;2.40;;;2.20;;
17570;SDS011;8903;52.220;20.978;2023-07-29T14:33:29;3.07;;;2.60;;
17570;SDS011;8903;52.220;20.978;2023-07-29T14:35:55;1.90;;;1.80;;
17570;SDS011;8903;52.220;20.978;2023-07-29T14:38:22;3.10;;;2.33;;